Time;durP1;ratioP1;P1;durP2;ratioP2;P2;SDS_P1;SDS_P2;PMS_P1;PMS_P2;Temp;Humidity;BMP_temperature;BMP_pressure;BME280_temperature;BME280_humidity;BME280_pressure;Samples;Min_cycle;Max_cycle;Signal;HPM_P1;HPM_P2
2022/04/16 00:00:01;;;;;;;1.88;0.57;;;;;;;;;;5008378;28;20109;-79
2022/04/16 00:02:29;;;;;;;0.95;0.50;;;;;;;;;;5013617;28;20029;-77
2022/04/16 00:04:55;;;;;;;1.27;0.73;;;;;;;;;;5014890;28;20056;-80
2022/04/16 00:07:21;;;;;;;1.60;0.57;;;;;;;;;;5013528;28;20030;-80
2022/04/16 00:09:47;;;;;;;1.27;0.50;;;;;;;;;;5014162;28;20038;-79
2022/04/16 00:12:12;;;;;;;0.63;0.50;;;;;;;;;;5007488;28;20026;-80
2022/04/16 00:14:39;;;;;;;0.57;0.47;;;;;;;;;;5013108;28;20034;-80
2022/04/16 00:17:05;;;;;;;2.13;0.88;;;;;;;;;;5008650;28;20136;-76
2022/04/16 00:19:32;;;;;;;0.75;0.75;;;;;;;;;;5012300;28;20030;-79
2022/04/16 00:22:00;;;;;;;1.48;0.60;;;;;;;;;;5008386;28;20057;-80
2022/04/16 00:24:26;;;;;;;0.60;0.50;;;;;;;;;;5012800;28;20453;-80
2022/04/16 00:26:52;;;;;;;0.93;0.30;;;;;;;;;;5011380;28;20026;-80
2022/04/16 00:29:18;;;;;;;1.95;0.70;;;;;;;;;;5010410;28;20121;-79
2022/04/16 00:31:45;;;;;;;0.77;0.60;;;;;;;;;;5013210;28;20025;-79
2022/04/16 00:34:14;;;;;;;3.20;2.00;;;;;;;;;;5012477;28;20105;-79
2022/04/16 00:36:40;;;;;;;11.10;6.00;;;;;;;;;;5015722;28;20029;-79
2022/04/16 00:39:06;;;;;;;11.05;5.55;;;;;;;;;;5012415;28;20057;-79
2022/04/16 00:41:32;;;;;;;8.55;4.60;;;;;;;;;;5015424;28;20025;-79
2022/04/16 00:43:58;;;;;;;5.53;3.08;;;;;;;;;;5012035;28;20021;-78
2022/04/16 00:46:24;;;;;;;2.45;1.48;;;;;;;;;;5011745;28;20040;-79
2022/04/16 00:48:50;;;;;;;7.63;2.35;;;;;;;;;;5016488;28;20084;-79
2022/04/16 00:51:16;;;;;;;7.88;2.88;;;;;;;;;;5015967;28;20499;-79
2022/04/16 00:53:42;;;;;;;7.97;2.78;;;;;;;;;;5019815;28;20112;-79
2022/04/16 00:56:10;;;;;;;4.32;2.50;;;;;;;;;;5015927;28;20026;-79
2022/04/16 00:58:37;;;;;;;2.08;0.95;;;;;;;;;;5007661;28;20033;-78
2022/04/16 01:01:02;;;;;;;3.00;1.00;;;;;;;;;;5010978;28;20037;-79
2022/04/16 01:03:29;;;;;;;1.13;0.60;;;;;;;;;;5014864;28;20536;-80
2022/04/16 01:05:55;;;;;;;2.17;1.02;;;;;;;;;;5012254;28;20064;-79
2022/04/16 01:08:22;;;;;;;1.35;0.60;;;;;;;;;;5012621;28;20089;-79
2022/04/16 01:10:48;;;;;;;1.45;0.57;;;;;;;;;;5017657;28;20034;-79
2022/04/16 01:13:15;;;;;;;0.75;0.60;;;;;;;;;;5006876;28;20375;-80
2022/04/16 01:15:41;;;;;;;1.02;0.52;;;;;;;;;;5010797;28;20034;-78
2022/04/16 01:18:08;;;;;;;1.27;0.70;;;;;;;;;;5015846;28;20068;-79
2022/04/16 01:20:35;;;;;;;1.52;1.23;;;;;;;;;;5013557;28;20112;-78
2022/04/16 01:23:02;;;;;;;2.47;1.13;;;;;;;;;;5012273;28;20469;-79
2022/04/16 01:25:32;;;;;;;0.75;0.40;;;;;;;;;;5010700;28;20038;-79
2022/04/16 01:27:58;;;;;;;1.20;0.68;;;;;;;;;;5009890;28;20029;-79
2022/04/16 01:30:24;;;;;;;1.25;0.70;;;;;;;;;;5011551;28;20049;-79
2022/04/16 01:32:50;;;;;;;2.13;0.85;;;;;;;;;;5013426;28;20022;-79
2022/04/16 01:35:17;;;;;;;1.02;0.43;;;;;;;;;;5018829;28;20034;-79
2022/04/16 01:37:43;;;;;;;1.20;0.85;;;;;;;;;;5016287;28;20101;-80
2022/04/16 01:40:10;;;;;;;1.00;0.60;;;;;;;;;;5012407;28;20061;-79
2022/04/16 01:42:37;;;;;;;1.75;0.77;;;;;;;;;;5007786;28;20510;-79
2022/04/16 01:45:05;;;;;;;1.05;0.65;;;;;;;;;;5011546;28;20048;-79
2022/04/16 01:47:30;;;;;;;0.90;0.60;;;;;;;;;;5012393;28;20113;-79
2022/04/16 01:49:57;;;;;;;0.88;0.47;;;;;;;;;;5014224;28;20076;-79
2022/04/16 01:52:23;;;;;;;1.90;0.85;;;;;;;;;;5016397;28;20026;-79
2022/04/16 01:54:50;;;;;;;0.38;0.35;;;6.40;99.90;;;;;;5011680;28;20022;-79
2022/04/16 01:57:18;;;;;;;1.55;0.80;;;6.10;99.90;;;;;;5013338;28;20026;-79
2022/04/16 01:59:45;;;;;;;1.70;1.05;;;;;;;;;;5011870;28;20038;-79
2022/04/16 02:02:11;;;;;;;0.95;0.60;;;;;;;;;;5016502;28;20029;-79
2022/04/16 02:04:37;;;;;;;0.73;0.50;;;;;;;;;;5015386;28;20507;-80
2022/04/16 02:07:03;;;;;;;1.20;0.60;;;;;;;;;;5010078;28;20394;-78
2022/04/16 02:09:29;;;;;;;4.63;1.20;;;;;;;;;;5010106;28;20151;-79
2022/04/16 02:11:55;;;;;;;0.50;0.50;;;;;;;;;;5014586;28;20034;-78
2022/04/16 02:14:21;;;;;;;2.05;0.70;;;;;;;;;;5011279;28;20048;-79
2022/04/16 02:16:47;;;;;;;1.20;0.55;;;;;;;;;;5017021;28;20780;-78
2022/04/16 02:19:14;;;;;;;2.90;0.85;;;;;;;;;;5015430;28;20030;-79
2022/04/16 02:21:40;;;;;;;1.88;0.50;;;;;;;;;;5013314;28;20030;-80
2022/04/16 02:24:07;;;;;;;1.70;0.80;;;;;;;;;;5014421;28;20084;-80
2022/04/16 02:26:33;;;;;;;1.73;0.70;;;;;;;;;;5017514;28;20036;-79
2022/04/16 02:28:59;;;;;;;1.80;0.93;;;;;;;;;;5015576;28;20048;-79
2022/04/16 02:31:25;;;;;;;1.52;0.85;;;;;;;;;;5008859;28;20040;-80
2022/04/16 02:33:51;;;;;;;3.35;0.80;;;;;;;;;;5014572;28;20021;-79
2022/04/16 02:36:19;;;;;;;1.98;1.00;;;;;;;;;;5018903;28;20034;-79
2022/04/16 02:38:47;;;;;;;1.25;0.75;;;;;;;;;;5009453;28;20088;-79
2022/04/16 02:41:13;;;;;;;2.88;1.30;;;;;;;;;;5014480;28;20038;-79
2022/04/16 02:43:39;;;;;;;1.58;0.63;;;;;;;;;;5008579;28;20117;-79
2022/04/16 02:48:50;;;;;;;2.25;1.10;;;;;;;;;;5011561;28;20116;-78
2022/04/16 02:51:16;;;;;;;2.22;0.60;;;;;;;;;;5014983;28;20025;-78
2022/04/16 02:53:42;;;;;;;2.25;1.08;;;;;;;;;;5008955;28;20337;-79
2022/04/16 02:56:08;;;;;;;1.65;0.63;;;;;;;;;;5013264;28;20034;-78
2022/04/16 02:58:34;;;;;;;1.25;0.60;;;;;;;;;;5012846;28;20030;-80
2022/04/16 03:01:00;;;;;;;1.15;0.85;;;;;;;;;;5012861;28;20393;-80
2022/04/16 03:03:26;;;;;;;1.27;0.77;;;;;;;;;;5012351;28;20097;-79
2022/04/16 03:05:52;;;;;;;3.03;0.80;;;;;;;;;;5012285;28;20029;-79
2022/04/16 03:08:18;;;;;;;2.53;1.40;;;;;;;;;;5012077;28;20030;-78
2022/04/16 03:10:44;;;;;;;1.10;0.70;;;;;;;;;;5009694;28;20045;-80
2022/04/16 03:13:11;;;;;;;1.45;0.93;;;;;;;;;;5010573;28;20039;-80
2022/04/16 03:18:22;;;;;;;2.85;1.00;;;;;;;;;;5017032;28;20056;-79
2022/04/16 03:20:49;;;;;;;2.25;1.00;;;;;;;;;;5008053;28;20101;-79
2022/04/16 03:23:15;;;;;;;2.05;0.82;;;;;;;;;;5017027;28;20076;-79
2022/04/16 03:25:43;;;;;;;1.45;0.68;;;;;;;;;;5012580;28;20014;-78
2022/04/16 03:28:09;;;;;;;4.65;0.82;;;;;;;;;;5009706;28;20124;-79
2022/04/16 03:30:35;;;;;;;1.77;0.68;;;;;;;;;;5015581;28;20044;-79
2022/04/16 03:33:01;;;;;;;1.30;0.93;;;;;;;;;;5009409;28;20073;-79
2022/04/16 03:35:27;;;;;;;1.20;0.57;;;;;;;;;;5012898;28;20033;-80
2022/04/16 03:37:54;;;;;;;2.72;0.80;;;;;;;;;;5005025;28;20022;-79
2022/04/16 03:40:24;;;;;;;0.68;0.55;;;;;;;;;;5017508;28;20493;-77
2022/04/16 03:42:51;;;;;;;2.25;1.13;;;;;;;;;;5016852;28;20029;-79
2022/04/16 03:45:21;;;;;;;1.38;0.55;;;6.60;99.90;;;;;;5012654;28;20030;-80
2022/04/16 03:47:48;;;;;;;2.08;0.65;;;;;;;;;;5016156;28;20033;-79
2022/04/16 03:50:14;;;;;;;2.33;0.85;;;;;;;;;;5015845;28;20113;-79
2022/04/16 03:52:41;;;;;;;1.60;0.70;;;;;;;;;;5014727;28;20065;-79
2022/04/16 04:00:37;;;;;;;2.03;0.55;;;;;;;;;;5006505;28;20103;-79
2022/04/16 04:03:03;;;;;;;1.30;0.52;;;;;;;;;;5012328;28;20741;-79
2022/04/16 04:05:29;;;;;;;1.38;0.85;;;;;;;;;;5011905;28;20473;-80
2022/04/16 04:07:56;;;;;;;1.27;0.70;;;;;;;;;;5015714;28;20034;-80
2022/04/16 04:10:21;;;;;;;1.60;0.80;;;;;;;;;;5021860;28;20515;-79
2022/04/16 04:12:48;;;;;;;1.30;0.70;;;;;;;;;;5015767;28;20406;-79
2022/04/16 04:15:14;;;;;;;1.88;0.60;;;;;;;;;;5018068;28;20037;-79
2022/04/16 04:17:39;;;;;;;2.03;0.57;;;;;;;;;;5017894;28;20049;-79
2022/04/16 04:20:06;;;;;;;1.90;0.82;;;;;;;;;;5015972;28;20109;-78
2022/04/16 04:22:32;;;;;;;1.88;0.93;;;;;;;;;;5016079;28;20117;-79
2022/04/16 04:24:58;;;;;;;1.63;1.05;;;;;;;;;;5012317;28;20557;-79
2022/04/16 04:27:24;;;;;;;4.93;1.13;;;;;;;;;;5017054;28;20083;-80
2022/04/16 04:29:50;;;;;;;1.80;1.08;;;;;;;;;;5008435;28;20041;-78
2022/04/16 04:32:15;;;;;;;2.72;0.90;;;;;;;;;;5013018;28;20494;-79
2022/04/16 04:34:41;;;;;;;2.53;0.93;;;;;;;;;;5013375;28;20041;-79
2022/04/16 04:37:07;;;;;;;1.00;0.68;;;;;;;;;;5019876;28;20038;-79
2022/04/16 04:39:33;;;;;;;1.63;0.57;;;;;;;;;;5013546;28;20187;-79
2022/04/16 04:41:59;;;;;;;1.23;0.85;;;;;;;;;;5018154;28;20053;-80
2022/04/16 04:44:25;;;;;;;1.67;0.70;;;;;;;;;;5012604;28;20037;-79
2022/04/16 04:46:51;;;;;;;1.70;0.65;;;;;;;;;;5017507;28;20252;-80
2022/04/16 04:49:17;;;;;;;0.57;0.52;;;;;;;;;;5018156;28;20100;-79
2022/04/16 04:51:44;;;;;;;0.73;0.45;;;;;;;;;;5017762;28;20029;-78
2022/04/16 04:54:10;;;;;;;1.58;0.70;;;;;;;;;;5013515;28;20030;-79
2022/04/16 04:56:36;;;;;;;1.23;0.57;;;;;;;;;;5018037;28;20037;-79
2022/04/16 04:59:02;;;;;;;1.10;0.80;;;;;;;;;;5015714;28;20037;-79
2022/04/16 05:01:28;;;;;;;2.55;1.02;;;;;;;;;;5012139;28;20108;-81
2022/04/16 05:03:54;;;;;;;1.45;0.85;;;;;;;;;;5012051;28;20053;-80
2022/04/16 05:06:20;;;;;;;2.05;1.05;;;;;;;;;;5004447;28;20038;-78
2022/04/16 05:08:46;;;;;;;1.52;0.73;;;;;;;;;;5014905;28;20033;-79
2022/04/16 05:11:13;;;;;;;1.35;0.73;;;;;;;;;;5016831;28;20063;-79
2022/04/16 05:13:39;;;;;;;1.10;0.77;;;;;;;;;;5010439;28;20022;-78
2022/04/16 05:16:05;;;;;;;1.48;0.70;;;;;;;;;;5002708;28;20458;-78
2022/04/16 05:18:32;;;;;;;0.98;0.70;;;;;;;;;;5000427;28;20034;-79
2022/04/16 05:20:58;;;;;;;1.23;0.60;;;;;;;;;;5014420;28;20026;-78
2022/04/16 05:23:24;;;;;;;1.50;0.98;;;;;;;;;;5014931;28;20030;-79
2022/04/16 05:25:51;;;;;;;1.63;0.90;;;;;;;;;;5015061;28;20026;-80
2022/04/16 05:28:16;;;;;;;1.92;0.85;;;;;;;;;;5012475;28;20034;-79
2022/04/16 05:30:48;;;;;;;2.72;1.67;;;;;;;;;;5004600;28;20052;-79
2022/04/16 05:36:01;;;;;;;1.92;0.80;;;;;;;;;;5009758;28;20422;-81
2022/04/16 05:38:27;;;;;;;7.05;1.70;;;;;;;;;;5008728;28;20038;-80
2022/04/16 05:40:53;;;;;;;2.60;1.05;;;;;;;;;;5012885;28;20033;-80
2022/04/16 05:43:19;;;;;;;6.45;1.60;;;;;;;;;;5011563;28;20030;-78
2022/04/16 05:45:45;;;;;;;4.10;2.30;;;;;;;;;;4999992;28;20038;-80
2022/04/16 05:48:11;;;;;;;4.25;1.55;;;;;;;;;;5010557;28;20037;-79
2022/04/16 05:50:37;;;;;;;6.35;2.42;;;;;;;;;;5004496;28;20056;-80
2022/04/16 05:53:06;;;;;;;3.92;2.33;;;;;;;;;;5013745;28;20049;-79
2022/04/16 05:55:34;;;;;;;5.78;1.98;;;;;;;;;;5009203;28;20420;-79
2022/04/16 05:58:00;;;;;;;6.45;1.98;;;;;;;;;;5010183;28;20025;-80
2022/04/16 06:00:27;;;;;;;4.38;2.10;;;;;;;;;;5000918;28;20579;-79
2022/04/16 06:02:53;;;;;;;2.88;1.80;;;;;;;;;;5010449;28;20033;-80
2022/04/16 06:05:21;;;;;;;5.20;1.58;;;;;;;;;;5011741;28;20060;-79
2022/04/16 06:07:47;;;;;;;4.78;1.77;;;;;;;;;;5005015;28;20072;-79
2022/04/16 06:10:12;;;;;;;3.63;1.70;;;;;;;;;;5003184;28;20038;-80
2022/04/16 06:12:41;;;;;;;7.00;3.55;;;;;;;;;;5001662;28;20033;-80
2022/04/16 06:15:07;;;;;;;5.28;3.47;;;;;;;;;;5002052;28;20038;-81
2022/04/16 06:17:33;;;;;;;5.00;2.65;;;;;;;;;;4995551;28;20032;-80
2022/04/16 06:19:59;;;;;;;6.03;2.90;;;;;;;;;;4996867;28;20037;-80
2022/04/16 06:22:25;;;;;;;6.47;2.92;;;;;;;;;;4996045;28;20041;-81
2022/04/16 06:24:50;;;;;;;8.55;3.33;;;;;;;;;;5005519;28;20034;-80
2022/04/16 06:27:17;;;;;;;5.75;3.05;;;;;;;;;;4993948;28;20053;-78
2022/04/16 06:29:42;;;;;;;5.07;2.72;;;;;;;;;;5003712;28;20088;-80
2022/04/16 06:32:08;;;;;;;4.88;2.67;;;;;;;;;;5007454;28;20025;-79
2022/04/16 06:34:34;;;;;;;6.40;3.30;;;;;;;;;;5008703;28;20030;-80
2022/04/16 06:37:00;;;;;;;9.55;4.35;;;;;;;;;;5008250;28;20096;-79
2022/04/16 06:39:26;;;;;;;5.82;2.97;;;;;;;;;;5006123;28;21284;-79
2022/04/16 06:41:52;;;;;;;6.65;2.83;;;;;;;;;;5011502;28;20122;-79
2022/04/16 06:44:18;;;;;;;6.85;3.17;;;;;;;;;;5008341;28;20030;-81
2022/04/16 06:46:46;;;;;;;6.97;2.58;;;;;;;;;;5004979;28;20034;-82
2022/04/16 06:49:12;;;;;;;7.97;3.08;;;;;;;;;;5009016;28;20141;-80
2022/04/16 06:51:38;;;;;;;11.13;2.92;;;;;;;;;;5011681;28;20083;-81
2022/04/16 06:54:04;;;;;;;8.00;3.10;;;;;;;;;;5016362;28;20033;-80
2022/04/16 06:56:30;;;;;;;8.15;3.70;;;;;;;;;;5006626;28;20030;-80
2022/04/16 06:58:55;;;;;;;8.55;3.28;;;;;;;;;;5007399;28;20536;-81
2022/04/16 07:01:21;;;;;;;7.75;3.65;;;;;;;;;;5009049;28;20034;-83
2022/04/16 07:03:47;;;;;;;9.05;3.88;;;;;;;;;;5012583;28;20104;-81
2022/04/16 07:06:13;;;;;;;6.72;3.33;;;;;;;;;;5008184;28;20033;-81
2022/04/16 07:08:39;;;;;;;8.75;3.80;;;;;;;;;;5009065;28;20042;-81
2022/04/16 07:11:05;;;;;;;8.98;4.43;;;;;;;;;;5011395;28;20037;-81
2022/04/16 07:13:31;;;;;;;6.60;2.97;;;;;;;;;;5006977;28;20497;-81
2022/04/16 07:15:57;;;;;;;8.45;3.35;;;;;;;;;;5010645;28;20401;-82
2022/04/16 07:18:25;;;;;;;7.65;3.33;;;;;;;;;;5005426;28;20147;-82
2022/04/16 07:20:51;;;;;;;6.82;3.63;;;;;;;;;;5011520;28;20033;-82
2022/04/16 07:23:17;;;;;;;7.18;3.20;;;;;;;;;;5008755;28;20192;-81
2022/04/16 07:25:43;;;;;;;5.18;2.53;;;;;;;;;;5011650;28;20030;-81
2022/04/16 07:28:11;;;;;;;8.77;2.95;;;;;;;;;;5007784;28;20037;-79
2022/04/16 07:30:37;;;;;;;5.43;2.03;;;;;;;;;;5010623;28;20038;-81
2022/04/16 07:33:03;;;;;;;6.00;2.72;;;;;;;;;;5017666;28;20033;-81
2022/04/16 07:35:29;;;;;;;7.07;2.92;;;;;;;;;;5015746;28;22687;-82
2022/04/16 07:37:58;;;;;;;5.85;3.13;;;;;;;;;;5010089;28;20044;-81
2022/04/16 07:40:25;;;;;;;8.95;2.97;;;;;;;;;;5011036;28;20022;-82
2022/04/16 07:42:52;;;;;;;10.07;3.75;;;;;;;;;;5013074;28;20076;-81
2022/04/16 07:45:17;;;;;;;6.50;2.42;;;;;;;;;;5012504;28;20038;-81
2022/04/16 07:47:43;;;;;;;4.55;2.17;;;;;;;;;;5013105;28;20157;-81
2022/04/16 07:50:10;;;;;;;4.18;2.10;;;;;;;;;;5015147;28;20038;-81
2022/04/16 07:52:36;;;;;;;5.55;2.40;;;;;;;;;;5012920;28;20116;-80
2022/04/16 07:55:02;;;;;;;8.48;2.92;;;;;;;;;;5012767;28;20065;-82
2022/04/16 07:57:28;;;;;;;4.78;2.17;;;;;;;;;;5009378;28;20014;-81
2022/04/16 07:59:54;;;;;;;5.70;3.10;;;;;;;;;;5016014;28;20026;-81
2022/04/16 08:02:21;;;;;;;4.85;1.85;;;;;;;;;;5009514;28;20417;-81
2022/04/16 08:04:47;;;;;;;8.40;2.63;;;;;;;;;;5013416;28;20033;-80
2022/04/16 08:07:13;;;;;;;5.75;2.30;;;;;;;;;;5011257;28;20036;-81
2022/04/16 08:09:39;;;;;;;3.85;2.03;;;;;;;;;;5015116;28;20037;-81
2022/04/16 08:12:05;;;;;;;5.88;2.10;;;;;;;;;;5006716;28;20030;-81
2022/04/16 08:14:31;;;;;;;4.30;2.15;;;;;;;;;;5011561;28;20045;-80
2022/04/16 08:16:57;;;;;;;5.13;2.25;;;;;;;;;;5009884;28;20025;-81
2022/04/16 08:19:23;;;;;;;4.43;1.45;;;;;;;;;;5011354;28;21224;-79
2022/04/16 08:21:51;;;;;;;6.35;1.95;;;;;;;;;;5014057;28;20026;-80
2022/04/16 08:24:39;;;;;;;4.85;1.90;;;;;;;;;;5019974;28;20514;-80
2022/04/16 08:27:05;;;;;;;2.65;1.00;;;;;;;;;;5004044;28;20034;-82
2022/04/16 08:29:32;;;;;;;1.23;0.90;;;;;;;;;;5013048;28;20097;-80
2022/04/16 08:31:57;;;;;;;3.47;1.52;;;;;;;;;;5003854;28;20029;-81
2022/04/16 08:34:23;;;;;;;2.60;0.95;;;;;;;;;;5002301;28;20042;-81
2022/04/16 08:36:49;;;;;;;3.33;1.33;;;;;;;;;;5010018;28;20494;-80
2022/04/16 08:39:15;;;;;;;2.90;1.50;;;;;;;;;;4995199;28;20040;-80
2022/04/16 08:41:42;;;;;;;2.78;1.23;;;;;;;;;;4996751;28;20025;-81
2022/04/16 08:44:09;;;;;;;2.75;1.38;;;;;;;;;;5008369;28;20099;-79
2022/04/16 08:46:35;;;;;;;4.47;1.90;;;;;;;;;;5006769;28;20482;-80
2022/04/16 08:49:04;;;;;;;6.15;2.53;;;;;;;;;;5009477;28;20095;-79
2022/04/16 08:51:30;;;;;;;7.60;3.17;;;;;;;;;;5005448;28;20130;-80
2022/04/16 08:53:56;;;;;;;3.70;1.73;;;;;;;;;;5005531;28;20021;-81
2022/04/16 08:56:23;;;;;;;7.50;3.30;;;;;;;;;;5006629;28;20045;-80
2022/04/16 08:58:49;;;;;;;5.18;1.52;;;;;;;;;;4996709;28;20050;-80
2022/04/16 09:01:23;;;;;;;5.78;2.38;;;;;;;;;;5006557;28;20022;-81
2022/04/16 09:03:53;;;;;;;6.70;3.65;;;;;;;;;;5005631;28;20022;-79
2022/04/16 09:06:23;;;;;;;13.88;5.35;;;;;;;;;;5012128;28;20101;-80
2022/04/16 09:08:54;;;;;;;12.40;5.68;;;;;;;;;;5008450;28;20061;-81
2022/04/16 09:11:22;;;;;;;4.93;2.08;;;;;;;;;;5009974;28;20030;-79
2022/04/16 09:13:53;;;;;;;7.63;3.35;;;;;;;;;;5006686;28;20033;-80
2022/04/16 09:16:19;;;;;;;4.50;2.00;;;;;;;;;;5007323;28;20104;-79
2022/04/16 09:18:45;;;;;;;4.03;2.05;;;;;;;;;;5005104;28;20382;-80
2022/04/16 09:21:13;;;;;;;4.13;2.42;;;;;;;;;;5006082;28;20029;-79
2022/04/16 09:23:44;;;;;;;5.93;2.90;;;;;;;;;;5007000;28;20060;-78
2022/04/16 09:26:10;;;;;;;5.32;2.17;;;;;;;;;;5010084;28;20030;-80
2022/04/16 09:28:43;;;;;;;5.25;2.28;;;;;;;;;;5002470;28;20036;-80
2022/04/16 09:31:09;;;;;;;6.18;2.95;;;;;;;;;;5009072;28;20095;-80
2022/04/16 09:33:40;;;;;;;5.47;2.63;;;;;;;;;;5002796;28;20038;-78
2022/04/16 09:36:06;;;;;;;5.10;2.05;;;;;;;;;;5008159;28;20050;-79
2022/04/16 09:38:35;;;;;;;5.63;2.55;;;;;;;;;;4999175;28;20077;-79
2022/04/16 09:41:08;;;;;;;6.32;2.28;;;;;;;;;;5010100;28;20081;-79
2022/04/16 09:43:38;;;;;;;4.80;2.17;;;;;;;;;;5008833;28;20117;-80
2022/04/16 09:46:09;;;;;;;6.55;2.55;;;;;;;;;;5008454;28;20041;-80
2022/04/16 09:48:36;;;;;;;4.47;2.40;;;;;;;;;;5010723;28;20988;-78
2022/04/16 09:51:02;;;;;;;5.63;2.63;;;;;;;;;;5007181;28;20584;-79
2022/04/16 09:53:30;;;;;;;3.03;1.80;;;12.50;98.00;;;;;;5009051;28;20030;-78
2022/04/16 09:55:56;;;;;;;4.55;2.08;;;;;;;;;;5009320;28;20025;-78
2022/04/16 09:58:26;;;;;;;3.47;1.95;;;;;;;;;;5009027;28;20378;-79
2022/04/16 10:00:52;;;;;;;3.85;1.50;;;;;;;;;;4999660;28;20111;-78
2022/04/16 10:03:19;;;;;;;4.55;2.00;;;;;;;;;;5005054;28;20106;-78
2022/04/16 10:05:45;;;;;;;2.60;1.42;;;;;;;;;;4997677;28;20064;-79
2022/04/16 10:08:13;;;;;;;7.20;1.80;;;;;;;;;;5001590;28;20069;-78
2022/04/16 10:10:46;;;;;;;4.55;1.65;;;;;;;;;;5009505;28;20717;-82
2022/04/16 10:13:15;;;;;;;4.53;1.40;;;;;;;;;;5002464;28;20060;-82
2022/04/16 10:16:02;;;;;;;5.60;1.90;;;;;;;;;;5004830;28;20191;-83
2022/04/16 10:18:29;;;;;;;4.13;2.10;;;;;;;;;;4999400;28;20132;-80
2022/04/16 10:20:55;;;;;;;4.45;1.58;;;;;;;;;;4995188;28;20022;-81
2022/04/16 10:23:39;;;;;;;3.47;1.60;;;;;;;;;;4997081;28;20068;-78
2022/04/16 10:26:11;;;;;;;4.78;1.35;;;;;;;;;;5001324;28;20100;-81
2022/04/16 10:28:40;;;;;;;2.15;1.25;;;;;;;;;;4997191;28;20018;-82
2022/04/16 10:31:06;;;;;;;6.60;2.95;;;;;;;;;;5005385;28;20473;-83
2022/04/16 10:33:32;;;;;;;4.22;1.65;;;;;;;;;;5000068;28;20030;-80
2022/04/16 10:36:03;;;;;;;5.68;2.33;;;;;;;;;;5007315;28;20232;-85
2022/04/16 10:38:40;;;;;;;4.32;2.30;;;;;;;;;;5003708;28;21286;-82
2022/04/16 10:41:12;;;;;;;5.75;2.45;;;;;;;;;;5003546;28;20072;-84
2022/04/16 10:43:39;;;;;;;6.75;3.47;;;;;;;;;;5006802;28;20104;-80
2022/04/16 10:46:09;;;;;;;3.92;1.55;;;;;;;;;;4999801;28;20037;-82
2022/04/16 10:48:41;;;;;;;5.30;2.13;;;;;;;;;;4999407;28;20022;-83
2022/04/16 10:51:08;;;;;;;12.30;4.38;;;15.10;91.50;;;;;;5000215;28;20038;-80
2022/04/16 10:53:35;;;;;;;4.20;1.55;;;;;;;;;;5010295;28;20121;-84
2022/04/16 10:56:13;;;;;;;6.60;1.50;;;;;;;;;;5007659;28;20030;-80
2022/04/16 10:58:39;;;;;;;3.63;2.42;;;;;;;;;;5009429;28;20025;-81
2022/04/16 11:01:23;;;;;;;2.70;1.30;;;;;;;;;;5001980;28;20430;-83
2022/04/16 11:03:49;;;;;;;3.92;1.27;;;;;;;;;;5008595;28;20030;-81
2022/04/16 11:06:16;;;;;;;3.08;1.13;;;;;;;;;;5005886;28;20108;-79
2022/04/16 11:08:45;;;;;;;4.97;1.23;;;;;;;;;;5000952;28;20057;-81
2022/04/16 11:11:12;;;;;;;2.95;1.27;;;;;;;;;;5004916;28;20038;-87
2022/04/16 11:13:38;;;;;;;5.88;1.23;;;;;;;;;;5001494;28;20486;-79
2022/04/16 11:16:05;;;;;;;2.25;0.85;;;;;;;;;;4998260;28;20072;-82
2022/04/16 11:18:57;;;;;;;3.03;1.17;;;;;;;;;;5005267;28;20477;-81
2022/04/16 11:21:29;;;;;;;5.50;3.88;;;;;;;;;;5000867;28;20180;-81
2022/04/16 11:23:55;;;;;;;2.47;1.23;;;;;;;;;;5004945;28;20041;-81
2022/04/16 11:34:44;;;;;;;5.88;2.10;;;;;;;;;;5003310;28;20421;-84
2022/04/16 11:37:10;;;;;;;13.98;4.03;;;;;;;;;;5007122;28;20030;-88
2022/04/16 11:39:37;;;;;;;3.70;1.80;;;;;;;;;;5004972;28;20040;-82
2022/04/16 11:42:07;;;;;;;2.72;1.67;;;;;;;;;;5004723;28;20030;-85
2022/04/16 11:44:45;;;;;;;5.68;2.03;;;;;;;;;;5007231;28;20068;-83
2022/04/16 11:47:12;;;;;;;3.20;1.42;;;;;;;;;;5008958;28;20037;-81
2022/04/16 11:49:39;;;;;;;2.92;1.17;;;;;;;;;;5008944;28;20406;-83
2022/04/16 11:52:06;;;;;;;1.48;0.75;;;;;;;;;;5003217;28;20030;-81
2022/04/16 11:54:32;;;;;;;3.92;1.30;;;;;;;;;;5001741;28;20030;-80
2022/04/16 11:56:59;;;;;;;1.20;0.52;;;;;;;;;;5001147;28;20030;-79
2022/04/16 11:59:31;;;;;;;2.08;1.15;;;;;;;;;;5001279;28;20363;-78
2022/04/16 12:02:06;;;;;;;1.33;0.73;;;;;;;;;;5006999;28;20065;-81
2022/04/16 12:04:35;;;;;;;1.90;0.95;;;;;;;;;;5003015;28;20059;-83
2022/04/16 12:07:01;;;;;;;4.53;0.88;;;;;;;;;;4998912;28;20042;-79
2022/04/16 12:09:27;;;;;;;6.60;2.30;;;;;;;;;;5001162;28;20042;-79
2022/04/16 12:11:56;;;;;;;3.13;2.13;;;;;;;;;;5002536;28;20137;-80
2022/04/16 12:14:25;;;;;;;1.45;1.02;;;;;;;;;;4994693;28;20141;-83
2022/04/16 12:16:58;;;;;;;1.60;0.60;;;;;;;;;;5001651;28;20072;-82
2022/04/16 12:19:23;;;;;;;3.00;1.30;;;;;;;;;;5003220;28;20029;-82
2022/04/16 12:21:49;;;;;;;2.60;1.10;;;;;;;;;;5006512;28;20549;-80
2022/04/16 12:24:24;;;;;;;2.75;1.27;;;;;;;;;;5003390;28;20401;-81
2022/04/16 12:26:50;;;;;;;3.72;1.10;;;;;;;;;;5000318;28;20030;-79
2022/04/16 12:29:18;;;;;;;2.55;1.50;;;;;;;;;;5002730;28;20042;-80
2022/04/16 12:31:44;;;;;;;5.07;1.65;;;;;;;;;;5004663;28;20591;-82
2022/04/16 12:34:09;;;;;;;4.80;1.15;;;;;;;;;;5003938;28;20029;-81
2022/04/16 12:36:36;;;;;;;3.72;1.00;;;;;;;;;;5009975;28;20075;-79
2022/04/16 12:39:02;;;;;;;2.67;1.20;;;;;;;;;;5007427;28;20129;-78
2022/04/16 12:41:28;;;;;;;2.15;1.08;;;;;;;;;;5015820;28;20083;-78
2022/04/16 12:43:55;;;;;;;2.67;0.93;;;;;;;;;;5014172;28;20033;-80
2022/04/16 12:46:21;;;;;;;3.00;1.02;;;14.50;72.90;;;;;;5016217;28;20191;-80
2022/04/16 12:48:47;;;;;;;9.32;1.00;;;;;;;;;;5001927;28;20128;-82
2022/04/16 12:51:13;;;;;;;2.28;0.80;;;;;;;;;;5014476;28;20088;-83
2022/04/16 12:53:39;;;;;;;1.52;0.90;;;;;;;;;;5000138;28;20021;-81
2022/04/16 12:56:05;;;;;;;1.88;0.73;;;;;;;;;;5004254;28;20087;-81
2022/04/16 12:58:31;;;;;;;2.38;0.77;;;;;;;;;;5000205;28;20026;-82
2022/04/16 13:00:57;;;;;;;1.63;0.52;;;;;;;;;;4999336;28;20105;-79
2022/04/16 13:03:23;;;;;;;4.20;1.88;;;;;;;;;;5006879;28;20022;-79
2022/04/16 13:05:48;;;;;;;2.05;0.77;;;14.40;84.40;;;;;;5008796;28;20030;-79
2022/04/16 13:08:16;;;;;;;1.33;0.77;;;;;;;;;;5007573;28;20518;-78
2022/04/16 13:10:42;;;;;;;1.70;0.77;;;;;;;;;;5008519;28;20061;-77
2022/04/16 13:13:08;;;;;;;2.28;0.88;;;;;;;;;;5000738;28;20068;-77
2022/04/16 13:15:34;;;;;;;7.63;1.90;;;;;;;;;;5007559;28;20030;-81
2022/04/16 13:18:00;;;;;;;1.95;0.80;;;;;;;;;;5006474;28;20041;-79
2022/04/16 13:20:26;;;;;;;2.58;1.10;;;;;;;;;;5004223;28;20113;-78
2022/04/16 13:22:52;;;;;;;2.20;1.25;;;;;;;;;;5003627;28;20026;-78
2022/04/16 13:25:18;;;;;;;1.33;0.95;;;;;;;;;;5001726;28;20366;-78
2022/04/16 13:27:44;;;;;;;3.22;1.50;;;15.10;67.00;;;;;;5006209;28;20026;-78
2022/04/16 13:30:10;;;;;;;2.72;0.77;;;;;;;;;;5006674;28;20100;-78
2022/04/16 13:32:36;;;;;;;0.70;0.52;;;;;;;;;;5002740;28;20030;-78
2022/04/16 13:35:02;;;;;;;1.55;0.98;;;;;;;;;;5000684;28;20272;-77
2022/04/16 13:37:29;;;;;;;5.03;1.98;;;;;;;;;;5003970;28;20033;-78
2022/04/16 13:42:39;;;;;;;1.33;0.75;;;;;;;;;;4997666;28;20040;-77
2022/04/16 13:45:05;;;;;;;4.28;1.30;;;;;;;;;;4997185;28;20398;-76
2022/04/16 13:47:31;;;;;;;1.42;1.08;;;;;;;;;;4999298;28;20030;-76
2022/04/16 13:49:57;;;;;;;1.38;0.65;;;;;;;;;;4996772;28;20125;-78
2022/04/16 13:52:23;;;;;;;1.55;0.90;;;;;;;;;;5001309;28;20033;-77
2022/04/16 13:54:49;;;;;;;2.95;0.95;;;;;;;;;;5001091;28;20054;-77
2022/04/16 13:57:15;;;;;;;1.88;1.10;;;;;;;;;;4999945;28;20160;-77
2022/04/16 13:59:41;;;;;;;4.85;0.90;;;14.50;57.50;;;;;;4993881;28;20120;-76
2022/04/16 14:02:07;;;;;;;1.30;0.93;;;;;;;;;;5001205;28;20027;-77
2022/04/16 14:07:19;;;;;;;1.58;1.02;;;;;;;;;;4999805;28;20040;-77
2022/04/16 14:09:45;;;;;;;2.17;0.90;;;;;;;;;;5000895;28;20038;-77
2022/04/16 14:12:13;;;;;;;1.05;0.68;;;;;;;;;;5000947;28;20026;-77
2022/04/16 14:14:39;;;;;;;1.15;0.70;;;;;;;;;;4999666;28;20052;-77
2022/04/16 14:17:05;;;;;;;1.58;1.13;;;;;;;;;;4993190;28;20042;-77
2022/04/16 14:19:31;;;;;;;1.20;0.60;;;;;;;;;;4999432;28;20734;-78
2022/04/16 14:21:57;;;;;;;1.45;0.40;;;;;;;;;;4997073;28;20034;-78
2022/04/16 14:24:23;;;;;;;9.07;1.00;;;14.60;57.40;;;;;;5000870;28;20033;-77
2022/04/16 14:26:48;;;;;;;1.50;0.75;;;14.50;57.80;;;;;;4998910;28;22210;-77
2022/04/16 14:29:14;;;;;;;5.75;0.70;;;;;;;;;;4996869;28;20038;-77
2022/04/16 14:31:41;;;;;;;4.85;2.03;;;;;;;;;;4992531;28;20037;-77
2022/04/16 14:34:08;;;;;;;3.53;1.52;;;;;;;;;;5006690;28;20092;-78
2022/04/16 14:36:34;;;;;;;1.30;0.65;;;;;;;;;;5003975;28;20026;-77
2022/04/16 14:39:00;;;;;;;2.20;1.10;;;;;;;;;;5000606;28;20041;-77
2022/04/16 14:41:26;;;;;;;2.70;1.73;;;;;;;;;;5003745;28;20029;-78
2022/04/16 14:43:57;;;;;;;3.00;1.58;;;14.30;52.20;;;;;;5002286;28;20064;-77
2022/04/16 14:46:24;;;;;;;1.98;0.90;;;;;;;;;;4999054;28;20042;-76
2022/04/16 14:48:53;;;;;;;1.33;0.52;;;;;;;;;;5003382;28;20022;-77
2022/04/16 14:51:22;;;;;;;2.80;1.27;;;;;;;;;;4997443;28;20049;-78
2022/04/16 14:53:48;;;;;;;4.53;1.45;;;;;;;;;;5005440;28;20029;-77
2022/04/16 14:56:14;;;;;;;0.80;0.50;;;;;;;;;;5005059;28;20036;-77
2022/04/16 14:58:40;;;;;;;3.13;1.25;;;;;;;;;;5004273;28;20104;-77
2022/04/16 15:01:06;;;;;;;1.52;1.15;;;;;;;;;;4999668;28;20026;-78
2022/04/16 15:03:32;;;;;;;2.75;1.08;;;;;;;;;;5001650;28;20508;-78